createdAt,value
2019-03-30T00:02:55.946Z,3.71
2019-03-30T00:08:05.131Z,3.10
2019-03-30T00:13:14.338Z,2.99
2019-03-30T00:18:23.608Z,2.90
2019-03-30T00:23:33.528Z,3.20
2019-03-30T00:28:42.678Z,3.24
2019-03-30T00:33:51.738Z,2.31
2019-03-30T00:39:00.853Z,2.50
2019-03-30T00:44:09.952Z,2.79
2019-03-30T00:49:19.078Z,2.99
2019-03-30T00:54:28.143Z,2.99
2019-03-30T00:59:37.326Z,3.08
2019-03-30T01:04:46.392Z,2.57
2019-03-30T01:09:55.482Z,2.53
2019-03-30T01:15:04.518Z,3.03
2019-03-30T01:20:13.734Z,2.42
2019-03-30T01:25:22.826Z,2.30
2019-03-30T01:30:31.913Z,2.22
2019-03-30T01:35:40.933Z,2.08
2019-03-30T01:40:50.107Z,2.42
2019-03-30T01:45:59.133Z,2.18
2019-03-30T01:51:08.227Z,2.49
2019-03-30T01:56:17.239Z,2.42
2019-03-30T02:01:26.413Z,2.31
2019-03-30T02:06:35.501Z,1.76
2019-03-30T02:11:44.790Z,2.19
2019-03-30T02:16:53.879Z,1.60
2019-03-30T02:22:02.999Z,2.23
2019-03-30T02:27:12.052Z,2.25
2019-03-30T02:32:21.153Z,2.19
2019-03-30T02:37:30.230Z,1.76
2019-03-30T02:42:39.421Z,1.83
2019-03-30T02:47:48.526Z,2.18
2019-03-30T02:52:58.059Z,2.17
2019-03-30T02:58:07.073Z,2.07
2019-03-30T03:03:16.213Z,2.12
2019-03-30T03:08:25.298Z,2.08
2019-03-30T03:13:34.525Z,2.14
2019-03-30T03:18:43.549Z,2.09
2019-03-30T03:23:52.656Z,2.10
2019-03-30T03:29:01.737Z,1.72
2019-03-30T03:34:10.870Z,1.94
2019-03-30T03:39:19.909Z,1.95
2019-03-30T03:44:29.064Z,2.17
2019-03-30T03:49:38.102Z,1.69
2019-03-30T03:54:47.294Z,2.04
2019-03-30T03:59:56.473Z,1.49
2019-03-30T04:05:05.608Z,2.28
2019-03-30T04:10:14.599Z,2.86
2019-03-30T04:15:23.709Z,1.84
2019-03-30T04:20:32.775Z,2.01
2019-03-30T04:25:42.046Z,2.22
2019-03-30T04:30:51.109Z,1.99
2019-03-30T04:36:00.198Z,2.16
2019-03-30T04:41:09.214Z,2.95
2019-03-30T04:46:18.657Z,2.39
2019-03-30T04:51:27.858Z,2.27
2019-03-30T04:56:37.409Z,2.11
2019-03-30T05:01:46.501Z,2.22
2019-03-30T05:06:55.682Z,2.21
2019-03-30T05:12:04.732Z,1.87
2019-03-30T05:17:14.254Z,2.52
2019-03-30T05:22:35.077Z,2.64
2019-03-30T05:27:24.163Z,2.02
2019-03-30T05:32:33.261Z,2.42
2019-03-30T05:37:42.949Z,2.61
2019-03-30T05:42:51.980Z,2.35
2019-03-30T05:48:01.121Z,2.81
2019-03-30T05:53:10.290Z,2.94
2019-03-30T05:58:19.437Z,3.01
2019-03-30T06:03:28.449Z,2.71
2019-03-30T06:08:37.558Z,2.77
2019-03-30T06:13:46.626Z,2.37
2019-03-30T06:18:55.779Z,2.65
2019-03-30T06:24:04.857Z,2.69
2019-03-30T06:29:14.334Z,2.96
2019-03-30T06:34:23.414Z,2.99
2019-03-30T06:39:32.588Z,2.90
2019-03-30T06:44:53.415Z,2.85
2019-03-30T06:49:42.441Z,2.72
2019-03-30T06:54:51.497Z,2.57
2019-03-30T07:00:00.679Z,2.93
2019-03-30T07:05:09.760Z,2.97
2019-03-30T07:10:19.924Z,2.82
2019-03-30T07:15:34.590Z,2.35
2019-03-30T07:20:23.670Z,2.77
2019-03-30T07:25:32.753Z,3.03
2019-03-30T07:30:41.939Z,2.30
2019-03-30T07:35:51.474Z,2.15
2019-03-30T07:41:00.598Z,2.64
2019-03-30T07:46:09.678Z,2.42
2019-03-30T07:51:18.870Z,2.82
2019-03-30T07:56:27.901Z,2.12
2019-03-30T08:01:37.093Z,2.45
2019-03-30T08:06:46.187Z,2.55
2019-03-30T08:11:55.290Z,2.62
2019-03-30T08:17:04.439Z,2.59
2019-03-30T08:22:13.621Z,2.69
2019-03-30T08:27:22.709Z,3.07
2019-03-30T08:32:31.850Z,2.52
2019-03-30T08:37:41.242Z,2.55
2019-03-30T08:42:50.349Z,2.91
2019-03-30T08:47:59.439Z,2.55
2019-03-30T08:53:08.923Z,2.24
2019-03-30T08:58:17.945Z,3.04
2019-03-30T09:03:27.042Z,2.83
2019-03-30T09:08:36.059Z,2.49
2019-03-30T09:13:45.208Z,2.73
2019-03-30T09:18:54.466Z,2.54
2019-03-30T09:24:10.086Z,2.37
2019-03-30T09:29:12.194Z,2.97
2019-03-30T09:34:21.281Z,2.80
2019-03-30T09:39:30.331Z,2.59
2019-03-30T09:44:39.459Z,1.81
2019-03-30T09:49:48.547Z,2.61
2019-03-30T09:54:57.725Z,2.29
2019-03-30T10:00:06.751Z,2.79
2019-03-30T10:05:15.965Z,2.77
2019-03-30T10:10:24.990Z,3.03
2019-03-30T10:15:34.102Z,1.91
2019-03-30T10:20:43.126Z,1.88
2019-03-30T10:25:52.273Z,2.07
2019-03-30T10:31:01.358Z,2.58
2019-03-30T10:36:10.485Z,3.43
2019-03-30T10:41:19.522Z,2.41
2019-03-30T10:46:28.758Z,1.98
2019-03-30T10:51:37.791Z,2.33
2019-03-30T10:57:46.881Z,2.96
2019-03-30T11:02:55.953Z,2.52
2019-03-30T11:08:05.146Z,2.63
2019-03-30T11:13:14.305Z,2.87
2019-03-30T11:18:23.394Z,3.22
2019-03-30T11:23:46.697Z,2.74
2019-03-30T11:28:35.740Z,2.82
2019-03-30T11:33:44.753Z,2.78
2019-03-30T11:38:53.913Z,2.80
2019-03-30T11:44:03.130Z,3.07
2019-03-30T11:49:12.295Z,2.32
2019-03-30T11:54:21.385Z,2.25
2019-03-30T11:59:30.616Z,2.57
2019-03-30T12:04:39.686Z,2.13
2019-03-30T12:09:48.808Z,2.43
2019-03-30T12:14:57.886Z,1.76
2019-03-30T12:20:06.966Z,2.33
2019-03-30T12:25:15.998Z,2.10
2019-03-30T12:30:25.129Z,2.02
2019-03-30T12:35:34.225Z,2.22
2019-03-30T12:40:43.360Z,2.40
2019-03-30T12:45:52.426Z,2.28
2019-03-30T12:51:01.838Z,2.17
2019-03-30T12:56:12.731Z,2.27
2019-03-30T13:01:15.454Z,2.42
2019-03-30T13:06:20.550Z,1.79
2019-03-30T13:11:29.659Z,2.11
2019-03-30T13:16:38.697Z,2.24
2019-03-30T13:21:52.880Z,1.84
2019-03-30T13:26:56.799Z,1.79
2019-03-30T13:32:05.933Z,1.80
2019-03-30T13:37:15.394Z,2.53
2019-03-30T13:42:24.577Z,2.32
2019-03-30T13:47:33.663Z,2.33
2019-03-30T13:52:42.909Z,2.24
2019-03-30T13:57:51.929Z,2.27
2019-03-30T14:03:01.062Z,2.32
2019-03-30T14:08:10.117Z,2.53
2019-03-30T14:13:19.325Z,2.26
2019-03-30T14:18:28.475Z,2.59
2019-03-30T14:23:37.625Z,2.07
2019-03-30T14:28:46.877Z,2.11
2019-03-30T14:33:55.979Z,1.73
2019-03-30T14:39:05.016Z,1.50
2019-03-30T14:44:14.210Z,1.92
2019-03-30T14:49:23.306Z,1.68
2019-03-30T14:54:32.381Z,2.08
2019-03-30T14:59:41.390Z,2.45
2019-03-30T15:04:50.567Z,2.49
2019-03-30T15:09:59.769Z,1.94
2019-03-30T15:15:08.922Z,1.97
2019-03-30T15:20:17.933Z,1.52
2019-03-30T15:25:27.238Z,1.35
2019-03-30T15:30:36.294Z,2.02
2019-03-30T15:35:45.424Z,1.54
2019-03-30T15:40:55.808Z,1.94
2019-03-30T15:46:03.196Z,1.35
2019-03-30T15:51:12.401Z,1.75
2019-03-30T15:56:21.606Z,1.46
2019-03-30T16:01:30.813Z,1.99
2019-03-30T16:06:39.959Z,1.93
2019-03-30T16:11:49.042Z,1.52
2019-03-30T16:16:58.160Z,1.75
2019-03-30T16:22:07.195Z,1.49
2019-03-30T16:27:28.096Z,1.71
2019-03-30T16:32:24.935Z,1.96
2019-03-30T16:37:34.041Z,2.00
2019-03-30T16:42:43.049Z,1.66
2019-03-30T16:47:52.261Z,1.75
2019-03-30T16:53:01.319Z,2.08
2019-03-30T16:58:08.993Z,1.57
2019-03-30T17:03:18.022Z,2.22
2019-03-30T17:08:27.190Z,2.29
2019-03-30T17:13:36.610Z,2.05
2019-03-30T17:18:46.293Z,3.23
2019-03-30T17:23:55.309Z,3.91
2019-03-30T17:29:04.506Z,3.12
2019-03-30T17:34:13.606Z,2.39
2019-03-30T17:39:22.910Z,2.10
2019-03-30T17:44:31.950Z,1.99
2019-03-30T17:49:41.125Z,2.05
2019-03-30T17:54:50.239Z,2.23
2019-03-30T17:59:59.354Z,2.32
2019-03-30T18:05:08.406Z,2.16
2019-03-30T18:10:17.518Z,1.80
2019-03-30T18:15:26.573Z,2.25
2019-03-30T18:20:35.669Z,1.65
2019-03-30T18:25:44.706Z,1.73
2019-03-30T18:30:54.465Z,2.74
2019-03-30T18:36:03.545Z,2.26
2019-03-30T18:41:12.645Z,1.94
2019-03-30T18:46:21.690Z,1.88
2019-03-30T18:51:30.820Z,2.05
2019-03-30T18:56:39.973Z,1.67
2019-03-30T19:01:49.134Z,1.70
2019-03-30T19:06:58.182Z,1.52
2019-03-30T19:12:07.282Z,1.81
2019-03-30T19:17:16.292Z,1.99
2019-03-30T19:22:25.447Z,2.20
2019-03-30T19:27:34.494Z,2.28
2019-03-30T19:32:43.633Z,1.88
2019-03-30T19:37:53.342Z,1.67
2019-03-30T19:43:02.539Z,1.86
2019-03-30T19:48:11.690Z,1.28
2019-03-30T19:53:20.912Z,1.22
2019-03-30T19:58:29.933Z,1.10
2019-03-30T20:03:39.239Z,1.02
2019-03-30T20:08:48.307Z,1.31
2019-03-30T20:13:57.457Z,1.46
2019-03-30T20:19:12.469Z,1.15
2019-03-30T20:24:15.315Z,1.53
2019-03-30T20:29:25.337Z,1.49
2019-03-30T20:34:33.070Z,1.23
2019-03-30T20:39:42.216Z,1.23
2019-03-30T20:44:51.358Z,1.06
2019-03-30T20:50:00.445Z,1.17
2019-03-30T20:55:09.569Z,1.06
2019-03-30T21:00:18.637Z,1.16
2019-03-30T21:05:27.739Z,1.24
2019-03-30T21:10:36.810Z,1.18
2019-03-30T21:15:46.105Z,1.26
2019-03-30T21:20:55.450Z,1.15
2019-03-30T21:26:04.581Z,1.16
2019-03-30T21:31:13.642Z,1.21
2019-03-30T21:36:22.821Z,1.02
2019-03-30T21:41:31.846Z,1.00
2019-03-30T21:46:41.054Z,0.93
2019-03-30T21:51:50.139Z,1.15
2019-03-30T21:56:59.217Z,1.18
2019-03-30T22:02:08.242Z,1.00
2019-03-30T22:07:17.441Z,1.15
2019-03-30T22:12:26.527Z,1.18
2019-03-30T22:17:35.662Z,1.25
2019-03-30T22:22:44.743Z,0.85
2019-03-30T22:27:53.921Z,0.95
2019-03-30T22:33:02.998Z,0.74
2019-03-30T22:38:12.254Z,0.81
2019-03-30T22:43:21.304Z,0.56
2019-03-30T22:48:30.418Z,0.55
2019-03-30T22:53:39.465Z,0.58
2019-03-30T22:58:48.578Z,0.58
2019-03-30T23:03:57.622Z,0.68
2019-03-30T23:09:06.805Z,0.55
2019-03-30T23:14:15.893Z,0.55
2019-03-30T23:19:24.990Z,0.75
2019-03-30T23:24:34.026Z,0.61
2019-03-30T23:29:43.146Z,0.73
2019-03-30T23:34:52.230Z,0.65
2019-03-30T23:40:01.362Z,0.72
2019-03-30T23:45:10.502Z,0.78
2019-03-30T23:50:19.578Z,0.95
2019-03-30T23:55:28.641Z,1.02
